sensor_id;sensor_type;location;lat;lon;timestamp;pressure;altitude;pressure_sealevel;temperature;humidity
15817;BME280;8009;50.070;8.232;2024-03-08T00:00:22;100054.41;;;8.96;46.10
15817;BME280;8009;50.070;8.232;2024-03-08T00:02:54;100063.19;;;9.64;45.00
15817;BME280;8009;50.070;8.232;2024-03-08T00:05:27;100055.97;;;9.64;44.53
15817;BME280;8009;50.070;8.232;2024-03-08T00:07:55;100065.03;;;9.89;44.71
15817;BME280;8009;50.070;8.232;2024-03-08T00:10:27;100058.22;;;9.58;45.54
15817;BME280;8009;50.070;8.232;2024-03-08T00:12:56;100057.25;;;9.46;45.16
15817;BME280;8009;50.070;8.232;2024-03-08T00:15:26;100053.03;;;9.80;44.19
15817;BME280;8009;50.070;8.232;2024-03-08T00:17:59;100061.44;;;8.99;45.71
15817;BME280;8009;50.070;8.232;2024-03-08T00:20:29;100060.41;;;9.40;44.56
15817;BME280;8009;50.070;8.232;2024-03-08T00:22:57;100056.50;;;9.57;44.01
15817;BME280;8009;50.070;8.232;2024-03-08T00:25:30;100052.84;;;9.45;44.61
15817;BME280;8009;50.070;8.232;2024-03-08T00:27:59;100051.44;;;9.14;45.56
15817;BME280;8009;50.070;8.232;2024-03-08T00:30:27;100050.06;;;9.46;45.27
15817;BME280;8009;50.070;8.232;2024-03-08T00:32:59;100047.53;;;9.69;44.75
15817;BME280;8009;50.070;8.232;2024-03-08T00:35:27;100046.81;;;9.67;44.37
15817;BME280;8009;50.070;8.232;2024-03-08T00:37:56;100049.28;;;9.57;44.46
15817;BME280;8009;50.070;8.232;2024-03-08T00:40:25;100046.91;;;9.52;44.31
15817;BME280;8009;50.070;8.232;2024-03-08T00:42:54;100051.91;;;8.81;45.23
15817;BME280;8009;50.070;8.232;2024-03-08T00:45:23;100048.63;;;8.63;45.12
15817;BME280;8009;50.070;8.232;2024-03-08T00:47:52;100041.91;;;8.83;45.03
15817;BME280;8009;50.070;8.232;2024-03-08T00:50:23;100039.00;;;8.86;44.82
15817;BME280;8009;50.070;8.232;2024-03-08T00:52:54;100039.59;;;8.64;45.74
15817;BME280;8009;50.070;8.232;2024-03-08T00:55:22;100041.78;;;8.44;45.23
15817;BME280;8009;50.070;8.232;2024-03-08T00:57:51;100040.75;;;8.18;46.26
15817;BME280;8009;50.070;8.232;2024-03-08T01:00:21;100039.16;;;8.43;46.07
15817;BME280;8009;50.070;8.232;2024-03-08T01:02:50;100036.53;;;8.14;46.30
15817;BME280;8009;50.070;8.232;2024-03-08T01:05:19;100028.63;;;8.40;45.86
15817;BME280;8009;50.070;8.232;2024-03-08T01:07:51;100027.16;;;8.34;46.17
15817;BME280;8009;50.070;8.232;2024-03-08T01:10:20;100034.88;;;8.40;46.10
15817;BME280;8009;50.070;8.232;2024-03-08T01:12:48;100029.72;;;8.09;46.30
15817;BME280;8009;50.070;8.232;2024-03-08T01:15:17;100031.00;;;8.44;45.89
15817;BME280;8009;50.070;8.232;2024-03-08T01:17:45;100025.16;;;8.65;45.89
15817;BME280;8009;50.070;8.232;2024-03-08T01:20:14;100023.41;;;8.37;46.48
15817;BME280;8009;50.070;8.232;2024-03-08T01:22:43;100018.84;;;8.24;46.21
15817;BME280;8009;50.070;8.232;2024-03-08T01:25:14;100011.16;;;8.60;45.65
15817;BME280;8009;50.070;8.232;2024-03-08T01:27:45;100018.97;;;8.09;46.59
15817;BME280;8009;50.070;8.232;2024-03-08T01:30:14;100009.16;;;8.22;46.46
15817;BME280;8009;50.070;8.232;2024-03-08T01:32:42;100006.97;;;8.00;47.42
15817;BME280;8009;50.070;8.232;2024-03-08T01:35:11;100001.66;;;8.13;46.91
15817;BME280;8009;50.070;8.232;2024-03-08T01:37:39;99998.88;;;8.14;46.43
15817;BME280;8009;50.070;8.232;2024-03-08T01:40:08;99998.03;;;8.14;46.66
15817;BME280;8009;50.070;8.232;2024-03-08T01:42:40;99989.72;;;7.90;47.08
15817;BME280;8009;50.070;8.232;2024-03-08T01:45:08;99990.72;;;8.16;46.66
15817;BME280;8009;50.070;8.232;2024-03-08T01:47:38;99996.88;;;8.18;46.44
15817;BME280;8009;50.070;8.232;2024-03-08T01:50:07;99993.88;;;8.22;46.82
15817;BME280;8009;50.070;8.232;2024-03-08T01:52:36;99991.97;;;7.83;47.49
15817;BME280;8009;50.070;8.232;2024-03-08T01:55:05;99990.66;;;8.30;46.31
15817;BME280;8009;50.070;8.232;2024-03-08T01:57:35;99991.53;;;7.89;47.02
15817;BME280;8009;50.070;8.232;2024-03-08T02:00:13;99980.19;;;7.57;47.56
15817;BME280;8009;50.070;8.232;2024-03-08T02:02:42;99982.31;;;7.93;47.07
15817;BME280;8009;50.070;8.232;2024-03-08T02:05:11;99973.16;;;8.10;46.81
15817;BME280;8009;50.070;8.232;2024-03-08T02:07:40;99970.78;;;8.33;46.73
15817;BME280;8009;50.070;8.232;2024-03-08T02:10:09;99973.34;;;8.07;47.05
15817;BME280;8009;50.070;8.232;2024-03-08T02:12:38;99968.38;;;8.01;46.86
15817;BME280;8009;50.070;8.232;2024-03-08T02:15:09;99967.75;;;8.24;46.64
15817;BME280;8009;50.070;8.232;2024-03-08T02:17:38;99970.19;;;8.00;46.84
15817;BME280;8009;50.070;8.232;2024-03-08T02:20:09;99968.97;;;7.92;47.24
15817;BME280;8009;50.070;8.232;2024-03-08T02:22:43;99969.44;;;7.57;47.72
15817;BME280;8009;50.070;8.232;2024-03-08T02:25:11;99958.06;;;7.80;47.44
15817;BME280;8009;50.070;8.232;2024-03-08T02:27:43;99964.78;;;8.15;46.75
15817;BME280;8009;50.070;8.232;2024-03-08T02:30:12;99961.03;;;8.17;46.25
15817;BME280;8009;50.070;8.232;2024-03-08T02:32:42;99968.38;;;8.01;46.99
15817;BME280;8009;50.070;8.232;2024-03-08T02:35:11;99950.72;;;8.24;46.85
15817;BME280;8009;50.070;8.232;2024-03-08T02:37:42;99957.72;;;7.99;46.87
15817;BME280;8009;50.070;8.232;2024-03-08T02:40:13;99952.53;;;7.96;46.85
15817;BME280;8009;50.070;8.232;2024-03-08T02:42:42;99952.03;;;7.77;47.14
15817;BME280;8009;50.070;8.232;2024-03-08T02:45:10;99946.22;;;8.24;46.49
15817;BME280;8009;50.070;8.232;2024-03-08T02:47:40;99951.88;;;7.93;46.92
15817;BME280;8009;50.070;8.232;2024-03-08T02:50:10;99937.94;;;8.00;47.11
15817;BME280;8009;50.070;8.232;2024-03-08T02:52:46;99939.59;;;7.89;47.47
15817;BME280;8009;50.070;8.232;2024-03-08T02:55:16;99937.94;;;7.59;47.69
15817;BME280;8009;50.070;8.232;2024-03-08T02:57:45;99941.47;;;8.01;47.18
15817;BME280;8009;50.070;8.232;2024-03-08T03:00:15;99940.19;;;7.94;47.16
15817;BME280;8009;50.070;8.232;2024-03-08T03:02:46;99942.69;;;7.55;47.91
15817;BME280;8009;50.070;8.232;2024-03-08T03:08:38;99935.19;;;7.61;47.84
15817;BME280;8009;50.070;8.232;2024-03-08T03:11:09;99936.03;;;7.61;48.35
15817;BME280;8009;50.070;8.232;2024-03-08T03:13:38;99928.00;;;7.88;47.60
15817;BME280;8009;50.070;8.232;2024-03-08T03:16:07;99926.00;;;8.04;47.43
15817;BME280;8009;50.070;8.232;2024-03-08T03:18:36;99933.72;;;7.96;47.08
15817;BME280;8009;50.070;8.232;2024-03-08T03:21:06;99926.88;;;7.78;48.22
15817;BME280;8009;50.070;8.232;2024-03-08T03:23:39;99930.50;;;7.36;48.98
15817;BME280;8009;50.070;8.232;2024-03-08T03:26:14;99926.34;;;7.58;48.24
15817;BME280;8009;50.070;8.232;2024-03-08T03:28:44;99927.91;;;7.48;48.37
15817;BME280;8009;50.070;8.232;2024-03-08T03:31:28;99922.06;;;7.83;47.89
15817;BME280;8009;50.070;8.232;2024-03-08T03:33:56;99922.78;;;7.58;48.49
15817;BME280;8009;50.070;8.232;2024-03-08T03:36:28;99919.75;;;6.93;49.40
15817;BME280;8009;50.070;8.232;2024-03-08T03:38:59;99914.09;;;7.81;48.17
15817;BME280;8009;50.070;8.232;2024-03-08T03:41:37;99915.31;;;7.63;48.53
15817;BME280;8009;50.070;8.232;2024-03-08T03:44:06;99913.53;;;7.76;47.99
15817;BME280;8009;50.070;8.232;2024-03-08T03:46:48;99914.97;;;7.41;48.64
15817;BME280;8009;50.070;8.232;2024-03-08T03:49:17;99915.34;;;7.35;49.00
15817;BME280;8009;50.070;8.232;2024-03-08T03:51:46;99906.63;;;7.31;48.92
15817;BME280;8009;50.070;8.232;2024-03-08T03:54:36;99912.47;;;7.23;49.06
15817;BME280;8009;50.070;8.232;2024-03-08T03:57:06;99912.53;;;7.36;48.98
15817;BME280;8009;50.070;8.232;2024-03-08T03:59:34;99908.53;;;7.70;48.56
15817;BME280;8009;50.070;8.232;2024-03-08T04:02:03;99910.53;;;7.40;49.17
15817;BME280;8009;50.070;8.232;2024-03-08T04:04:32;99910.72;;;7.51;48.77
15817;BME280;8009;50.070;8.232;2024-03-08T04:07:12;99910.56;;;7.25;49.28
15817;BME280;8009;50.070;8.232;2024-03-08T04:09:45;99910.44;;;7.41;49.01
15817;BME280;8009;50.070;8.232;2024-03-08T04:12:13;99903.25;;;7.42;49.29
15817;BME280;8009;50.070;8.232;2024-03-08T04:14:42;99903.13;;;7.85;48.19
15817;BME280;8009;50.070;8.232;2024-03-08T04:17:11;99905.97;;;7.69;48.57
15817;BME280;8009;50.070;8.232;2024-03-08T04:19:39;99909.03;;;7.07;50.04
15817;BME280;8009;50.070;8.232;2024-03-08T04:22:08;99899.50;;;7.44;49.15
15817;BME280;8009;50.070;8.232;2024-03-08T04:24:37;99902.06;;;7.60;48.79
15817;BME280;8009;50.070;8.232;2024-03-08T04:27:08;99896.72;;;7.87;48.35
15817;BME280;8009;50.070;8.232;2024-03-08T04:29:36;99896.34;;;7.79;48.77
15817;BME280;8009;50.070;8.232;2024-03-08T04:32:06;99883.81;;;7.92;48.02
15817;BME280;8009;50.070;8.232;2024-03-08T04:34:35;99882.06;;;7.78;48.92
15817;BME280;8009;50.070;8.232;2024-03-08T04:37:06;99879.34;;;8.05;47.93
15817;BME280;8009;50.070;8.232;2024-03-08T04:39:38;99896.16;;;6.98;50.02
15817;BME280;8009;50.070;8.232;2024-03-08T04:42:10;99892.94;;;6.93;50.13
15817;BME280;8009;50.070;8.232;2024-03-08T04:44:39;99882.38;;;7.18;49.98
15817;BME280;8009;50.070;8.232;2024-03-08T04:47:10;99891.47;;;7.16;50.05
15817;BME280;8009;50.070;8.232;2024-03-08T04:49:39;99880.72;;;7.30;49.73
15817;BME280;8009;50.070;8.232;2024-03-08T04:52:07;99885.13;;;7.31;50.01
15817;BME280;8009;50.070;8.232;2024-03-08T04:54:37;99880.75;;;7.57;49.41
15817;BME280;8009;50.070;8.232;2024-03-08T04:57:05;99877.97;;;7.58;49.23
15817;BME280;8009;50.070;8.232;2024-03-08T04:59:38;99877.53;;;7.52;49.33
15817;BME280;8009;50.070;8.232;2024-03-08T05:02:08;99871.97;;;7.41;49.85
15817;BME280;8009;50.070;8.232;2024-03-08T05:04:37;99864.44;;;7.04;50.59
15817;BME280;8009;50.070;8.232;2024-03-08T05:07:05;99866.19;;;6.91;50.43
15817;BME280;8009;50.070;8.232;2024-03-08T05:09:34;99878.34;;;7.11;50.14
15817;BME280;8009;50.070;8.232;2024-03-08T05:12:04;99878.34;;;6.82;50.54
15817;BME280;8009;50.070;8.232;2024-03-08T05:14:37;99864.69;;;7.28;49.99
15817;BME280;8009;50.070;8.232;2024-03-08T05:17:06;99863.63;;;7.72;49.30
15817;BME280;8009;50.070;8.232;2024-03-08T05:19:37;99871.22;;;7.24;49.95
15817;BME280;8009;50.070;8.232;2024-03-08T05:22:06;99862.59;;;7.19;50.14
15817;BME280;8009;50.070;8.232;2024-03-08T05:24:37;99867.31;;;7.16;50.31
15817;BME280;8009;50.070;8.232;2024-03-08T05:27:12;99871.16;;;7.26;50.37
15817;BME280;8009;50.070;8.232;2024-03-08T05:29:50;99862.66;;;7.46;49.70
15817;BME280;8009;50.070;8.232;2024-03-08T05:32:18;99865.97;;;6.94;50.87
15817;BME280;8009;50.070;8.232;2024-03-08T05:34:47;99867.44;;;7.00;50.39
15817;BME280;8009;50.070;8.232;2024-03-08T05:37:15;99862.13;;;7.13;50.42
15817;BME280;8009;50.070;8.232;2024-03-08T05:39:46;99858.63;;;6.83;51.00
15817;BME280;8009;50.070;8.232;2024-03-08T05:42:35;99862.63;;;7.05;51.05
15817;BME280;8009;50.070;8.232;2024-03-08T05:45:09;99854.09;;;6.84;51.35
15817;BME280;8009;50.070;8.232;2024-03-08T05:47:40;99866.34;;;6.59;51.95
15817;BME280;8009;50.070;8.232;2024-03-08T05:50:09;99857.34;;;7.03;51.05
15817;BME280;8009;50.070;8.232;2024-03-08T05:52:38;99856.19;;;6.93;50.65
15817;BME280;8009;50.070;8.232;2024-03-08T05:55:07;99846.72;;;7.43;50.12
15817;BME280;8009;50.070;8.232;2024-03-08T05:57:37;99844.59;;;7.07;50.97
15817;BME280;8009;50.070;8.232;2024-03-08T06:00:11;99848.81;;;7.25;49.72
15817;BME280;8009;50.070;8.232;2024-03-08T06:02:47;99851.06;;;7.31;50.35
15817;BME280;8009;50.070;8.232;2024-03-08T06:05:19;99840.56;;;7.14;50.63
15817;BME280;8009;50.070;8.232;2024-03-08T06:07:50;99844.34;;;6.83;51.34
15817;BME280;8009;50.070;8.232;2024-03-08T06:10:20;99839.16;;;6.80;51.31
15817;BME280;8009;50.070;8.232;2024-03-08T06:15:56;99837.59;;;6.90;51.30
15817;BME280;8009;50.070;8.232;2024-03-08T06:18:31;99827.88;;;7.30;50.24
15817;BME280;8009;50.070;8.232;2024-03-08T06:21:02;99831.84;;;6.96;51.57
15817;BME280;8009;50.070;8.232;2024-03-08T06:23:35;99827.16;;;7.14;50.88
15817;BME280;8009;50.070;8.232;2024-03-08T06:26:04;99830.13;;;6.67;51.84
15817;BME280;8009;50.070;8.232;2024-03-08T06:28:37;99824.41;;;6.87;52.00
15817;BME280;8009;50.070;8.232;2024-03-08T06:31:11;99824.09;;;6.92;51.52
15817;BME280;8009;50.070;8.232;2024-03-08T06:33:40;99831.34;;;7.18;51.11
15817;BME280;8009;50.070;8.232;2024-03-08T06:36:10;99826.47;;;7.11;50.71
15817;BME280;8009;50.070;8.232;2024-03-08T06:38:39;99829.47;;;6.92;51.25
15817;BME280;8009;50.070;8.232;2024-03-08T06:41:11;99825.56;;;6.83;51.76
15817;BME280;8009;50.070;8.232;2024-03-08T06:43:41;99828.97;;;6.99;51.70
15817;BME280;8009;50.070;8.232;2024-03-08T06:46:14;99829.88;;;7.27;50.78
15817;BME280;8009;50.070;8.232;2024-03-08T06:48:43;99825.63;;;6.81;51.82
15817;BME280;8009;50.070;8.232;2024-03-08T06:51:11;99828.41;;;7.36;50.88
15817;BME280;8009;50.070;8.232;2024-03-08T06:53:40;99825.78;;;7.21;50.47
15817;BME280;8009;50.070;8.232;2024-03-08T06:56:08;99826.06;;;7.17;51.17
15817;BME280;8009;50.070;8.232;2024-03-08T06:58:36;99829.19;;;6.82;51.74
15817;BME280;8009;50.070;8.232;2024-03-08T07:01:06;99833.06;;;7.61;49.84
15817;BME280;8009;50.070;8.232;2024-03-08T07:03:41;99828.38;;;7.08;51.10
15817;BME280;8009;50.070;8.232;2024-03-08T07:06:10;99831.66;;;6.99;51.23
15817;BME280;8009;50.070;8.232;2024-03-08T07:08:39;99825.75;;;7.63;50.21
15817;BME280;8009;50.070;8.232;2024-03-08T07:11:08;99822.84;;;7.39;50.73
15817;BME280;8009;50.070;8.232;2024-03-08T07:13:37;99827.53;;;7.08;50.59
15817;BME280;8009;50.070;8.232;2024-03-08T07:16:08;99827.38;;;7.38;50.84
15817;BME280;8009;50.070;8.232;2024-03-08T07:18:37;99822.75;;;7.40;50.32
15817;BME280;8009;50.070;8.232;2024-03-08T07:21:11;99831.16;;;7.21;50.51
15817;BME280;8009;50.070;8.232;2024-03-08T07:23:39;99817.50;;;7.66;50.32
15817;BME280;8009;50.070;8.232;2024-03-08T07:26:35;99825.19;;;7.30;50.57
15817;BME280;8009;50.070;8.232;2024-03-08T07:29:04;99822.09;;;6.81;51.57
15817;BME280;8009;50.070;8.232;2024-03-08T07:31:33;99820.63;;;7.18;50.36
15817;BME280;8009;50.070;8.232;2024-03-08T07:34:10;99808.75;;;7.62;49.60
15817;BME280;8009;50.070;8.232;2024-03-08T07:39:16;99804.44;;;8.52;47.74
15817;BME280;8009;50.070;8.232;2024-03-08T07:41:46;99801.81;;;8.25;47.95
15817;BME280;8009;50.070;8.232;2024-03-08T07:44:17;99811.13;;;7.67;49.02
15817;BME280;8009;50.070;8.232;2024-03-08T07:46:46;99802.47;;;7.76;49.39
15817;BME280;8009;50.070;8.232;2024-03-08T07:49:17;99812.88;;;7.41;50.14
15817;BME280;8009;50.070;8.232;2024-03-08T07:51:45;99812.22;;;7.64;49.44
15817;BME280;8009;50.070;8.232;2024-03-08T07:54:17;99798.31;;;7.97;48.91
15817;BME280;8009;50.070;8.232;2024-03-08T07:56:45;99810.41;;;7.65;49.39
15817;BME280;8009;50.070;8.232;2024-03-08T08:01:41;99804.38;;;7.74;49.40
15817;BME280;8009;50.070;8.232;2024-03-08T08:04:15;99791.59;;;7.65;49.74
15817;BME280;8009;50.070;8.232;2024-03-08T08:06:44;99802.31;;;6.96;50.80
15817;BME280;8009;50.070;8.232;2024-03-08T08:09:12;99804.06;;;7.39;50.33
15817;BME280;8009;50.070;8.232;2024-03-08T08:11:50;99788.13;;;7.63;50.24
15817;BME280;8009;50.070;8.232;2024-03-08T08:14:19;99787.50;;;8.12;48.71
15817;BME280;8009;50.070;8.232;2024-03-08T08:16:49;99786.31;;;7.63;50.16
15817;BME280;8009;50.070;8.232;2024-03-08T08:19:19;99774.69;;;8.02;49.40
15817;BME280;8009;50.070;8.232;2024-03-08T08:21:59;99779.72;;;7.94;48.90
15817;BME280;8009;50.070;8.232;2024-03-08T08:24:32;99761.56;;;7.98;49.08
15817;BME280;8009;50.070;8.232;2024-03-08T08:27:07;99763.47;;;7.96;49.43
15817;BME280;8009;50.070;8.232;2024-03-08T08:29:46;99754.88;;;8.03;49.20
15817;BME280;8009;50.070;8.232;2024-03-08T08:32:25;99756.19;;;8.23;48.95
15817;BME280;8009;50.070;8.232;2024-03-08T08:37:34;99743.63;;;8.37;48.66
15817;BME280;8009;50.070;8.232;2024-03-08T08:42:46;99737.28;;;8.63;48.07
15817;BME280;8009;50.070;8.232;2024-03-08T08:45:14;99743.13;;;8.81;47.33
15817;BME280;8009;50.070;8.232;2024-03-08T08:47:51;99740.78;;;7.87;49.22
15817;BME280;8009;50.070;8.232;2024-03-08T08:50:23;99732.97;;;8.10;48.78
15817;BME280;8009;50.070;8.232;2024-03-08T09:06:18;99722.91;;;8.75;47.54
15817;BME280;8009;50.070;8.232;2024-03-08T09:13:58;99705.22;;;9.21;46.91
15817;BME280;8009;50.070;8.232;2024-03-08T09:16:27;99712.44;;;9.20;47.22
15817;BME280;8009;50.070;8.232;2024-03-08T09:18:58;99700.19;;;9.03;47.02
15817;BME280;8009;50.070;8.232;2024-03-08T09:21:32;99701.25;;;9.14;46.81
15817;BME280;8009;50.070;8.232;2024-03-08T09:24:04;99690.47;;;8.90;47.15
15817;BME280;8009;50.070;8.232;2024-03-08T09:26:32;99685.28;;;9.59;46.02
15817;BME280;8009;50.070;8.232;2024-03-08T09:29:02;99687.47;;;9.89;45.49
15817;BME280;8009;50.070;8.232;2024-03-08T09:31:32;99675.69;;;10.01;44.83
15817;BME280;8009;50.070;8.232;2024-03-08T09:34:03;99673.81;;;9.79;45.16
15817;BME280;8009;50.070;8.232;2024-03-08T09:36:39;99673.91;;;9.66;45.08
15817;BME280;8009;50.070;8.232;2024-03-08T09:39:09;99676.97;;;9.62;45.47
15817;BME280;8009;50.070;8.232;2024-03-08T09:41:46;99657.06;;;10.09;44.49
15817;BME280;8009;50.070;8.232;2024-03-08T09:44:17;99656.41;;;9.83;45.18
15817;BME280;8009;50.070;8.232;2024-03-08T09:46:47;99649.59;;;10.01;44.50
15817;BME280;8009;50.070;8.232;2024-03-08T09:49:16;99655.41;;;9.62;45.55
15817;BME280;8009;50.070;8.232;2024-03-08T09:51:52;99646.03;;;10.12;44.72
15817;BME280;8009;50.070;8.232;2024-03-08T09:54:21;99649.78;;;9.76;45.08
15817;BME280;8009;50.070;8.232;2024-03-08T09:56:52;99642.38;;;9.56;45.52
15817;BME280;8009;50.070;8.232;2024-03-08T09:59:22;99645.75;;;9.11;46.10
15817;BME280;8009;50.070;8.232;2024-03-08T10:05:30;99625.09;;;10.27;44.52
15817;BME280;8009;50.070;8.232;2024-03-08T10:11:13;99619.66;;;9.82;45.07
15817;BME280;8009;50.070;8.232;2024-03-08T10:13:42;99621.56;;;10.27;43.90
15817;BME280;8009;50.070;8.232;2024-03-08T10:16:12;99622.84;;;9.87;44.84
15817;BME280;8009;50.070;8.232;2024-03-08T10:18:47;99610.50;;;9.96;44.33
15817;BME280;8009;50.070;8.232;2024-03-08T10:21:15;99604.34;;;9.94;44.43
15817;BME280;8009;50.070;8.232;2024-03-08T10:23:44;99594.81;;;10.35;44.14
15817;BME280;8009;50.070;8.232;2024-03-08T10:26:16;99592.34;;;10.86;43.43
15817;BME280;8009;50.070;8.232;2024-03-08T10:28:47;99606.28;;;10.14;44.75
15817;BME280;8009;50.070;8.232;2024-03-08T10:31:16;99591.69;;;10.62;43.61
15817;BME280;8009;50.070;8.232;2024-03-08T10:33:46;99579.44;;;10.58;43.43
15817;BME280;8009;50.070;8.232;2024-03-08T10:36:15;99582.50;;;10.96;42.50
15817;BME280;8009;50.070;8.232;2024-03-08T10:38:51;99563.66;;;10.74;42.40
15817;BME280;8009;50.070;8.232;2024-03-08T10:41:24;99568.94;;;11.08;42.05
15817;BME280;8009;50.070;8.232;2024-03-08T10:44:08;99557.88;;;11.32;41.74
15817;BME280;8009;50.070;8.232;2024-03-08T10:46:51;99565.28;;;11.30;41.48
15817;BME280;8009;50.070;8.232;2024-03-08T10:49:30;99563.81;;;10.72;41.92
15817;BME280;8009;50.070;8.232;2024-03-08T10:52:05;99547.94;;;11.11;41.38
15817;BME280;8009;50.070;8.232;2024-03-08T10:54:46;99559.97;;;11.07;41.47
15817;BME280;8009;50.070;8.232;2024-03-08T10:57:18;99550.28;;;11.05;41.33
15817;BME280;8009;50.070;8.232;2024-03-08T10:59:53;99546.47;;;11.49;41.78
15817;BME280;8009;50.070;8.232;2024-03-08T11:02:28;99539.75;;;11.43;41.00
15817;BME280;8009;50.070;8.232;2024-03-08T11:04:56;99548.31;;;11.28;40.67
15817;BME280;8009;50.070;8.232;2024-03-08T11:07:26;99530.59;;;11.35;40.91
15817;BME280;8009;50.070;8.232;2024-03-08T11:09:55;99533.34;;;10.70;42.02
15817;BME280;8009;50.070;8.232;2024-03-08T11:12:28;99533.34;;;11.03;41.78
15817;BME280;8009;50.070;8.232;2024-03-08T11:15:00;99533.91;;;10.53;42.06
15817;BME280;8009;50.070;8.232;2024-03-08T11:17:45;99536.44;;;10.98;41.77
15817;BME280;8009;50.070;8.232;2024-03-08T11:20:16;99511.34;;;11.07;41.30
15817;BME280;8009;50.070;8.232;2024-03-08T11:22:52;99511.63;;;11.56;40.89
15817;BME280;8009;50.070;8.232;2024-03-08T11:25:39;99520.00;;;11.74;40.25
15817;BME280;8009;50.070;8.232;2024-03-08T11:28:20;99511.81;;;11.12;40.86
15817;BME280;8009;50.070;8.232;2024-03-08T11:33:49;99502.66;;;11.55;40.28
15817;BME280;8009;50.070;8.232;2024-03-08T11:36:22;99504.13;;;10.76;41.34
15817;BME280;8009;50.070;8.232;2024-03-08T11:38:51;99508.09;;;11.13;41.05
15817;BME280;8009;50.070;8.232;2024-03-08T11:46:41;99483.34;;;11.60;40.10
15817;BME280;8009;50.070;8.232;2024-03-08T11:49:13;99493.59;;;11.56;40.60
15817;BME280;8009;50.070;8.232;2024-03-08T11:51:43;99489.78;;;11.17;41.09
15817;BME280;8009;50.070;8.232;2024-03-08T11:54:12;99470.03;;;11.78;40.01
15817;BME280;8009;50.070;8.232;2024-03-08T11:59:16;99463.34;;;11.82;40.44
15817;BME280;8009;50.070;8.232;2024-03-08T12:02:00;99462.38;;;12.13;39.15
15817;BME280;8009;50.070;8.232;2024-03-08T12:04:28;99463.88;;;11.66;39.92
15817;BME280;8009;50.070;8.232;2024-03-08T12:07:03;99465.38;;;12.59;38.61
15817;BME280;8009;50.070;8.232;2024-03-08T12:12:09;99464.09;;;12.43;38.77
15817;BME280;8009;50.070;8.232;2024-03-08T12:14:42;99450.72;;;12.52;38.39
15817;BME280;8009;50.070;8.232;2024-03-08T12:17:17;99443.41;;;13.10;37.62
15817;BME280;8009;50.070;8.232;2024-03-08T12:19:46;99449.28;;;12.38;39.19
15817;BME280;8009;50.070;8.232;2024-03-08T12:22:18;99436.16;;;12.62;37.95
15817;BME280;8009;50.070;8.232;2024-03-08T12:25:04;99426.41;;;13.08;37.55
15817;BME280;8009;50.070;8.232;2024-03-08T12:27:37;99432.47;;;12.54;38.04
15817;BME280;8009;50.070;8.232;2024-03-08T12:30:20;99415.56;;;13.08;38.06
15817;BME280;8009;50.070;8.232;2024-03-08T12:32:56;99415.22;;;12.84;38.50
15817;BME280;8009;50.070;8.232;2024-03-08T12:35:27;99422.75;;;12.32;38.58
15817;BME280;8009;50.070;8.232;2024-03-08T12:37:59;99422.91;;;12.40;39.57
15817;BME280;8009;50.070;8.232;2024-03-08T12:40:29;99418.44;;;13.07;38.02
15817;BME280;8009;50.070;8.232;2024-03-08T12:43:00;99413.84;;;13.64;37.15
15817;BME280;8009;50.070;8.232;2024-03-08T12:45:41;99415.34;;;13.02;37.49
15817;BME280;8009;50.070;8.232;2024-03-08T12:48:24;99404.22;;;12.85;37.33
15817;BME280;8009;50.070;8.232;2024-03-08T12:50:55;99413.94;;;12.68;37.49
15817;BME280;8009;50.070;8.232;2024-03-08T12:53:25;99411.03;;;12.89;37.12
15817;BME280;8009;50.070;8.232;2024-03-08T12:55:54;99400.69;;;12.65;37.57
15817;BME280;8009;50.070;8.232;2024-03-08T12:58:22;99390.22;;;13.09;38.43
15817;BME280;8009;50.070;8.232;2024-03-08T13:03:31;99393.00;;;12.32;38.30
15817;BME280;8009;50.070;8.232;2024-03-08T13:06:01;99381.00;;;13.20;37.73
15817;BME280;8009;50.070;8.232;2024-03-08T13:08:44;99389.09;;;12.92;37.55
15817;BME280;8009;50.070;8.232;2024-03-08T13:11:15;99372.59;;;12.66;37.87
15817;BME280;8009;50.070;8.232;2024-03-08T13:13:44;99377.97;;;12.96;37.40
15817;BME280;8009;50.070;8.232;2024-03-08T13:16:15;99366.94;;;13.54;37.15
15817;BME280;8009;50.070;8.232;2024-03-08T13:18:47;99366.13;;;12.97;38.09
15817;BME280;8009;50.070;8.232;2024-03-08T13:21:16;99356.84;;;13.09;37.79
15817;BME280;8009;50.070;8.232;2024-03-08T13:23:45;99368.75;;;13.16;37.67
15817;BME280;8009;50.070;8.232;2024-03-08T13:26:15;99363.28;;;12.98;37.66
15817;BME280;8009;50.070;8.232;2024-03-08T13:28:45;99352.59;;;12.87;38.26
15817;BME280;8009;50.070;8.232;2024-03-08T13:31:14;99337.28;;;13.43;37.05
15817;BME280;8009;50.070;8.232;2024-03-08T13:33:47;99339.50;;;13.20;37.44
15817;BME280;8009;50.070;8.232;2024-03-08T13:36:17;99350.47;;;12.90;37.81
15817;BME280;8009;50.070;8.232;2024-03-08T13:38:48;99345.28;;;13.07;37.52
15817;BME280;8009;50.070;8.232;2024-03-08T13:41:17;99341.16;;;13.03;38.08
15817;BME280;8009;50.070;8.232;2024-03-08T13:43:48;99325.25;;;13.55;37.16
15817;BME280;8009;50.070;8.232;2024-03-08T13:46:18;99326.66;;;13.22;38.49
15817;BME280;8009;50.070;8.232;2024-03-08T13:48:49;99328.66;;;13.29;37.79
15817;BME280;8009;50.070;8.232;2024-03-08T14:06:48;99297.63;;;13.04;37.72
15817;BME280;8009;50.070;8.232;2024-03-08T14:09:22;99279.03;;;13.74;36.67
15817;BME280;8009;50.070;8.232;2024-03-08T14:17:01;99261.34;;;13.25;37.04
15817;BME280;8009;50.070;8.232;2024-03-08T14:19:32;99272.84;;;13.36;37.27
15817;BME280;8009;50.070;8.232;2024-03-08T14:22:03;99250.53;;;14.14;36.70
15817;BME280;8009;50.070;8.232;2024-03-08T14:24:32;99250.84;;;14.11;35.99
15817;BME280;8009;50.070;8.232;2024-03-08T14:27:01;99244.06;;;13.89;36.34
15817;BME280;8009;50.070;8.232;2024-03-08T14:29:29;99241.34;;;13.71;36.88
15817;BME280;8009;50.070;8.232;2024-03-08T14:31:58;99233.94;;;13.18;37.47
15817;BME280;8009;50.070;8.232;2024-03-08T14:34:31;99231.25;;;13.63;37.27
15817;BME280;8009;50.070;8.232;2024-03-08T14:37:03;99225.81;;;13.46;37.48
15817;BME280;8009;50.070;8.232;2024-03-08T14:39:37;99225.19;;;13.70;36.88
15817;BME280;8009;50.070;8.232;2024-03-08T14:42:05;99220.25;;;14.01;36.36
15817;BME280;8009;50.070;8.232;2024-03-08T14:44:40;99222.97;;;13.47;37.32
15817;BME280;8009;50.070;8.232;2024-03-08T14:47:13;99215.84;;;13.64;37.23
15817;BME280;8009;50.070;8.232;2024-03-08T14:49:42;99217.22;;;13.23;37.75
15817;BME280;8009;50.070;8.232;2024-03-08T14:52:13;99208.53;;;13.47;38.08
15817;BME280;8009;50.070;8.232;2024-03-08T14:54:55;99210.47;;;13.36;37.40
15817;BME280;8009;50.070;8.232;2024-03-08T14:57:24;99209.47;;;13.73;36.55